Virginia — WCW4062 — position and weather

sailwx.info

Track history (hours):
 
Tides and Currents Weather Stations Pressure Air Temp Water Temp Dewpoint Dewpoint Depression Visibility Wind Speed Wind Dir Waves Ship Positions

Virginia

Owner: WEEKS MARINE, INC., CRANFORD, NJ. More information available from US FCC via Universal Licensing System and Coast Guard Vessel Documentation Center.

Last reported at 2014-Dec-19 14:06 UTC. Time now 2014-Dec-19 15:09 UTC.
Position N 40°29' W 074°15'.

MMSI: 366939110.

Date/timePositionNaut miles runAvg speedWind from/ knotsBaromVisibWave heightAir tempDewpointWater temp
2014-Dec-19 14:06N 40°29' W 074°15'1 0.2
2014-Dec-19 11:33N 40°30' W 074°15'0 0.1
2014-Dec-19 10:15N 40°30' W 074°15'0 0.1
2014-Dec-19 06:21N 40°30' W 074°16'0 0.0
2014-Dec-19 05:16N 40°30' W 074°16'0 0.5
2014-Dec-19 04:33N 40°30' W 074°15'0 0.1
2014-Dec-19 01:18N 40°30' W 074°15'0 0.0
2014-Dec-18 11:31N 40°30' W 074°15'0 0.0
2014-Dec-18 07:12N 40°30' W 074°15'0 0.1
2014-Dec-18 05:32N 40°30' W 074°15'0 0.1
2014-Dec-18 02:23N 40°30' W 074°15'6 1.4
2014-Dec-17 22:06N 40°30' W 074°08'12 7.1
2014-Dec-17 20:28N 40°22' W 073°56'9 8.8
2014-Dec-17 19:28N 40°13' W 073°59'25 8.6
2014-Dec-17 16:33N 39°48' W 074°03'8 8.5
2014-Dec-17 15:33N 39°40' W 074°07'9 8.8
2014-Dec-17 14:33N 39°32' W 074°12'105 2.7
2014-Dec-15 23:20N 39°02' W 076°22'5 4.8
2014-Dec-15 22:19N 38°57' W 076°24'  
2014-Dec-12 22:25N 39°33' W 074°11'6 7.3
2014-Dec-12 21:33N 39°39' W 074°08'7 7.0
2014-Dec-12 20:33N 39°46' W 074°04'7 7.2
2014-Dec-12 19:33N 39°53' W 074°03'35 6.9
2014-Dec-12 14:26N 40°28' W 073°57'6 5.6
2014-Dec-12 13:18N 40°33' W 074°02'5 7.3
2014-Dec-12 12:33N 40°38' W 074°03'2 2.3
2014-Dec-12 11:33N 40°41' W 074°04'0 0.0
2014-Dec-12 10:33N 40°41' W 074°04'0 0.0
2014-Dec-12 09:33N 40°41' W 074°04'0 0.0
2014-Dec-12 08:33N 40°41' W 074°04'0 0.0
2014-Dec-12 07:33N 40°41' W 074°04'0 0.0
2014-Dec-12 06:33N 40°41' W 074°04'0 0.0
2014-Dec-12 05:33N 40°41' W 074°04'0 0.0
2014-Dec-12 04:33N 40°41' W 074°04'0 0.0
2014-Dec-12 03:33N 40°41' W 074°04'0 0.0
2014-Dec-12 02:33N 40°41' W 074°04'0 0.0
2014-Dec-12 01:33N 40°41' W 074°04'0 0.0
2014-Dec-12 00:33N 40°41' W 074°04'0 0.2
2014-Dec-11 23:33N 40°41' W 074°05'0 0.2
2014-Dec-11 22:33N 40°41' W 074°04'0 0.0
2014-Dec-11 21:33N 40°41' W 074°04'0 0.0
2014-Dec-11 20:33N 40°41' W 074°04'0 0.2
2014-Dec-11 19:33N 40°41' W 074°05'0 0.0
2014-Dec-11 18:33N 40°41' W 074°05'0 0.0
2014-Dec-11 17:33N 40°41' W 074°05'0 0.0
2014-Dec-11 16:33N 40°41' W 074°05'0 0.0
2014-Dec-11 15:33N 40°41' W 074°05'0 0.0
2014-Dec-11 14:33N 40°41' W 074°05'0 0.0
2014-Dec-11 13:33N 40°41' W 074°05'0 0.0
2014-Dec-11 12:33N 40°41' W 074°05'0 0.0
2014-Dec-11 11:33N 40°41' W 074°05'0 0.0
2014-Dec-11 10:33N 40°41' W 074°05'0 0.0
2014-Dec-11 09:33N 40°41' W 074°05'0 0.0
2014-Dec-11 08:33N 40°41' W 074°05'0 0.0
2014-Dec-11 07:33N 40°41' W 074°05'0 0.0
2014-Dec-11 06:33N 40°41' W 074°05'0 0.0
2014-Dec-11 05:33N 40°41' W 074°05'0 0.0
2014-Dec-11 04:33N 40°41' W 074°05'0 0.0
2014-Dec-11 03:33N 40°41' W 074°05'0 0.0
2014-Dec-11 02:33N 40°41' W 074°05'0 0.0
2014-Dec-11 01:33N 40°41' W 074°05'0 0.0
2014-Dec-11 00:33N 40°41' W 074°05'0 0.0
2014-Dec-10 23:33N 40°41' W 074°05'0 0.0
2014-Dec-10 22:33N 40°41' W 074°05'0 0.0
2014-Dec-10 21:33N 40°41' W 074°05'0 0.0
2014-Dec-10 20:33N 40°41' W 074°05'0 0.0
2014-Dec-10 19:33N 40°41' W 074°05'0 0.0
2014-Dec-10 18:33N 40°41' W 074°05'0 0.0
2014-Dec-10 17:33N 40°41' W 074°05'0 0.0
2014-Dec-10 16:33N 40°41' W 074°05'0 0.0
2014-Dec-10 15:33N 40°41' W 074°05'0 0.0
2014-Dec-10 14:33N 40°41' W 074°05'0 0.0
2014-Dec-10 13:33N 40°41' W 074°05'0 0.0
2014-Dec-10 12:33N 40°41' W 074°05'0 0.0
2014-Dec-10 11:33N 40°41' W 074°05'0 0.0
2014-Dec-10 10:33N 40°41' W 074°05'0 0.0
2014-Dec-10 09:33N 40°41' W 074°05'0 0.0
2014-Dec-10 08:33N 40°41' W 074°05'0 0.0
2014-Dec-10 07:33N 40°41' W 074°05'0 0.0
2014-Dec-10 06:33N 40°41' W 074°05'0 0.0
2014-Dec-10 05:33N 40°41' W 074°05'0 0.0
2014-Dec-10 04:33N 40°41' W 074°05'0 0.0
2014-Dec-10 03:33N 40°41' W 074°05'0 0.0
2014-Dec-10 02:33N 40°41' W 074°05'0 0.0
2014-Dec-10 01:33N 40°41' W 074°05'0 0.0
2014-Dec-10 00:33N 40°41' W 074°05'0 0.0
2014-Dec-09 23:33N 40°41' W 074°05'0 0.0
2014-Dec-09 22:33N 40°41' W 074°05'0 0.0
2014-Dec-09 21:33N 40°41' W 074°05'0 0.0
2014-Dec-09 20:33N 40°41' W 074°05'0 0.0
2014-Dec-09 19:33N 40°41' W 074°05'0 0.0
2014-Dec-09 18:33N 40°41' W 074°05'0 0.0
2014-Dec-09 17:33N 40°41' W 074°05'0 0.0
2014-Dec-09 16:33N 40°41' W 074°05'0 0.0
2014-Dec-09 15:33N 40°41' W 074°05'0 0.0
2014-Dec-09 14:33N 40°41' W 074°05'  
Track history (hours):
 
Tides and Currents Weather Stations Pressure Air Temp Water Temp Dewpoint Dewpoint Depression Visibility Wind Speed Wind Dir Waves Ship Positions

Virginia

Owner: WEEKS MARINE, INC., CRANFORD, NJ. More information available from US FCC via Universal Licensing System and Coast Guard Vessel Documentation Center.

Last reported at 2014-Dec-19 14:06 UTC. Time now 2014-Dec-19 15:09 UTC.
Position N 40°29' W 074°15'.

MMSI: 366939110.

Date/timePositionNaut miles runAvg speedWind from/ knotsBaromVisibWave heightAir tempDewpointWater temp
2014-Dec-19 14:06N 40°29' W 074°15'1 0.2
2014-Dec-19 11:33N 40°30' W 074°15'0 0.1
2014-Dec-19 10:15N 40°30' W 074°15'0 0.1
2014-Dec-19 06:21N 40°30' W 074°16'0 0.0
2014-Dec-19 05:16N 40°30' W 074°16'0 0.5
2014-Dec-19 04:33N 40°30' W 074°15'0 0.1
2014-Dec-19 01:18N 40°30' W 074°15'0 0.0
2014-Dec-18 11:31N 40°30' W 074°15'0 0.0
2014-Dec-18 07:12N 40°30' W 074°15'0 0.1
2014-Dec-18 05:32N 40°30' W 074°15'0 0.1
2014-Dec-18 02:23N 40°30' W 074°15'6 1.4
2014-Dec-17 22:06N 40°30' W 074°08'12 7.1
2014-Dec-17 20:28N 40°22' W 073°56'9 8.8
2014-Dec-17 19:28N 40°13' W 073°59'25 8.6
2014-Dec-17 16:33N 39°48' W 074°03'8 8.5
2014-Dec-17 15:33N 39°40' W 074°07'9 8.8
2014-Dec-17 14:33N 39°32' W 074°12'105 2.7
2014-Dec-15 23:20N 39°02' W 076°22'5 4.8
2014-Dec-15 22:19N 38°57' W 076°24'  
2014-Dec-12 22:25N 39°33' W 074°11'6 7.3
2014-Dec-12 21:33N 39°39' W 074°08'7 7.0
2014-Dec-12 20:33N 39°46' W 074°04'7 7.2
2014-Dec-12 19:33N 39°53' W 074°03'35 6.9
2014-Dec-12 14:26N 40°28' W 073°57'6 5.6
2014-Dec-12 13:18N 40°33' W 074°02'5 7.3
2014-Dec-12 12:33N 40°38' W 074°03'2 2.3
2014-Dec-12 11:33N 40°41' W 074°04'0 0.0
2014-Dec-12 10:33N 40°41' W 074°04'0 0.0
2014-Dec-12 09:33N 40°41' W 074°04'0 0.0
2014-Dec-12 08:33N 40°41' W 074°04'0 0.0
2014-Dec-12 07:33N 40°41' W 074°04'0 0.0
2014-Dec-12 06:33N 40°41' W 074°04'0 0.0
2014-Dec-12 05:33N 40°41' W 074°04'0 0.0
2014-Dec-12 04:33N 40°41' W 074°04'0 0.0
2014-Dec-12 03:33N 40°41' W 074°04'0 0.0
2014-Dec-12 02:33N 40°41' W 074°04'0 0.0
2014-Dec-12 01:33N 40°41' W 074°04'0 0.0
2014-Dec-12 00:33N 40°41' W 074°04'0 0.2
2014-Dec-11 23:33N 40°41' W 074°05'0 0.2
2014-Dec-11 22:33N 40°41' W 074°04'0 0.0
2014-Dec-11 21:33N 40°41' W 074°04'0 0.0
2014-Dec-11 20:33N 40°41' W 074°04'0 0.2
2014-Dec-11 19:33N 40°41' W 074°05'0 0.0
2014-Dec-11 18:33N 40°41' W 074°05'0 0.0
2014-Dec-11 17:33N 40°41' W 074°05'0 0.0
2014-Dec-11 16:33N 40°41' W 074°05'0 0.0
2014-Dec-11 15:33N 40°41' W 074°05'0 0.0
2014-Dec-11 14:33N 40°41' W 074°05'0 0.0
2014-Dec-11 13:33N 40°41' W 074°05'0 0.0
2014-Dec-11 12:33N 40°41' W 074°05'0 0.0
2014-Dec-11 11:33N 40°41' W 074°05'0 0.0
2014-Dec-11 10:33N 40°41' W 074°05'0 0.0
2014-Dec-11 09:33N 40°41' W 074°05'0 0.0
2014-Dec-11 08:33N 40°41' W 074°05'0 0.0
2014-Dec-11 07:33N 40°41' W 074°05'0 0.0
2014-Dec-11 06:33N 40°41' W 074°05'0 0.0
2014-Dec-11 05:33N 40°41' W 074°05'0 0.0
2014-Dec-11 04:33N 40°41' W 074°05'0 0.0
2014-Dec-11 03:33N 40°41' W 074°05'0 0.0
2014-Dec-11 02:33N 40°41' W 074°05'0 0.0
2014-Dec-11 01:33N 40°41' W 074°05'0 0.0
2014-Dec-11 00:33N 40°41' W 074°05'0 0.0
2014-Dec-10 23:33N 40°41' W 074°05'0 0.0
2014-Dec-10 22:33N 40°41' W 074°05'0 0.0
2014-Dec-10 21:33N 40°41' W 074°05'0 0.0
2014-Dec-10 20:33N 40°41' W 074°05'0 0.0
2014-Dec-10 19:33N 40°41' W 074°05'0 0.0
2014-Dec-10 18:33N 40°41' W 074°05'0 0.0
2014-Dec-10 17:33N 40°41' W 074°05'0 0.0
2014-Dec-10 16:33N 40°41' W 074°05'0 0.0
2014-Dec-10 15:33N 40°41' W 074°05'0 0.0
2014-Dec-10 14:33N 40°41' W 074°05'0 0.0
2014-Dec-10 13:33N 40°41' W 074°05'0 0.0
2014-Dec-10 12:33N 40°41' W 074°05'0 0.0
2014-Dec-10 11:33N 40°41' W 074°05'0 0.0
2014-Dec-10 10:33N 40°41' W 074°05'0 0.0
2014-Dec-10 09:33N 40°41' W 074°05'0 0.0
2014-Dec-10 08:33N 40°41' W 074°05'0 0.0
2014-Dec-10 07:33N 40°41' W 074°05'0 0.0
2014-Dec-10 06:33N 40°41' W 074°05'0 0.0
2014-Dec-10 05:33N 40°41' W 074°05'0 0.0
2014-Dec-10 04:33N 40°41' W 074°05'0 0.0
2014-Dec-10 03:33N 40°41' W 074°05'0 0.0
2014-Dec-10 02:33N 40°41' W 074°05'0 0.0
2014-Dec-10 01:33N 40°41' W 074°05'0 0.0
2014-Dec-10 00:33N 40°41' W 074°05'0 0.0
2014-Dec-09 23:33N 40°41' W 074°05'0 0.0
2014-Dec-09 22:33N 40°41' W 074°05'0 0.0
2014-Dec-09 21:33N 40°41' W 074°05'0 0.0
2014-Dec-09 20:33N 40°41' W 074°05'0 0.0
2014-Dec-09 19:33N 40°41' W 074°05'0 0.0
2014-Dec-09 18:33N 40°41' W 074°05'0 0.0
2014-Dec-09 17:33N 40°41' W 074°05'0 0.0
2014-Dec-09 16:33N 40°41' W 074°05'0 0.0
2014-Dec-09 15:33N 40°41' W 074°05'0 0.0
2014-Dec-09 14:33N 40°41' W 074°05'  

Dump ship's entire track history